Disclaimer

Please do not use the information listed here in-flight or in-navigation, as they are not provided to us by the airports but are provided by volunteers, so they might be outdated.

Search


Regions


Airport information page

Radio informations:
LA PAZ TWR - 118.3 MHz
LA PAZ RDO - 6622 MHz
LA PAZ FIS - 127.1 MHz
Ground (GND) - 121.9 MHz
LA PAZ APP - 119.5 MHz

Airport informations:
Latitude: 16° 30' 48.02" S
Longitude: 068° 11' 32.12" W
Elevation: 13325 feet - 4061 meters
Operating hours: 24 hour operations
Operating agency: Military-civil joint use airport
Timezone: UTC-4
Fuel: Jet A, without icing inhibitor.

100/130 MIL Spec, low lead, aviation gasoline (BLUE)

Runway information:
10/28 - 13123 x 151 feet< - >4000 x 46 meters
10L/28R - 6725 x 300 feet< - >2050 x 91 meters

Recent METARs:
SLLP 190800Z 27004KT 9999 FEW005 FEW017CB SCT070 BKN200 06/05 Q1037
SLLP 190800Z 27004KT 9999 FEW005 FEW017CB SCT070 BKN200 06/05 Q1037
SLLP 190900Z VRB02KT 9999 FEW005 FEW017CB SCT070 BKN200 06/03 Q1036

Airport on the map: